Time;durP1;ratioP1;P1;durP2;ratioP2;P2;SDS_P1;SDS_P2;PMS_P1;PMS_P2;Temp;Humidity;BMP_temperature;BMP_pressure;BME280_temperature;BME280_humidity;BME280_pressure;Samples;Min_cycle;Max_cycle;Signal;HPM_P1;HPM_P2
2022/09/17 00:00:26;;;;;;;0.20;0.20;;;;;;;;;;5059817;28;20489;-67
2022/09/17 00:02:54;;;;;;;0.20;0.20;;;;;;;;;;5069331;28;20489;-67
2022/09/17 00:05:24;;;;;;;0.80;0.20;;;;;;;;;;5051275;28;20517;-67
2022/09/17 00:07:51;;;;;;;0.10;0.10;;;;;;;;;;5060035;28;20440;-67
2022/09/17 00:10:19;;;;;;;0.08;0.08;;;;;;;;;;5066992;28;20913;-67
2022/09/17 00:12:47;;;;;;;0.20;0.20;;;;;;;;;;5069570;28;20996;-67
2022/09/17 00:15:14;;;;;;;0.20;0.20;;;;;;;;;;5059752;28;20427;-68
2022/09/17 00:17:42;;;;;;;0.30;0.30;;;;;;;;;;5060238;28;20783;-67
2022/09/17 00:20:09;;;;;;;0.10;0.10;;;;;;;;;;5064221;28;20431;-67
2022/09/17 00:22:39;;;;;;;0.20;0.20;;;;;;;;;;5059405;28;20516;-67
2022/09/17 00:25:07;;;;;;;0.10;0.10;;;;;;;;;;5067595;28;20427;-67
2022/09/17 00:27:34;;;;;;;0.00;0.00;;;;;;;;;;5065969;28;20436;-67
2022/09/17 00:30:05;;;;;;;0.10;0.10;;;;;;;;;;5070770;28;20442;-67
2022/09/17 00:32:37;;;;;;;0.30;0.30;;;;;;;;;;5067829;28;20462;-67
2022/09/17 00:35:04;;;;;;;0.30;0.30;;;;;;;;;;5068695;28;20462;-67
2022/09/17 00:37:32;;;;;;;0.10;0.10;;;;;;;;;;5069421;28;20423;-67
2022/09/17 00:39:59;;;;;;;0.30;0.30;;;;;;;;;;5058630;28;20431;-67
2022/09/17 00:42:26;;;;;;;0.30;0.17;;;;;;;;;;5055011;28;20509;-67
2022/09/17 00:44:55;;;;;;;0.20;0.20;;;;;;;;;;5055161;28;20445;-67
2022/09/17 00:47:45;;;;;;;0.20;0.20;;;;;;;;;;5072600;28;20423;-67
2022/09/17 00:50:21;;;;;;;0.20;0.20;;;;;;;;;;5061587;28;20469;-67
2022/09/17 00:52:53;;;;;;;0.10;0.10;;;;;;;;;;5066141;28;20433;-67
2022/09/17 00:55:26;;;;;;;0.20;0.20;;;;;;;;;;5067346;28;20435;-67
2022/09/17 00:57:56;;;;;;;0.10;0.10;;;;;;;;;;5064888;28;21064;-67
2022/09/17 01:00:26;;;;;;;0.10;0.10;;;;;;;;;;5062058;28;20429;-67
2022/09/17 01:02:54;;;;;;;0.17;0.17;;;;;;;;;;5052042;28;20445;-67
2022/09/17 01:05:42;;;;;;;0.20;0.20;;;;;;;;;;5065517;28;20778;-67
2022/09/17 01:08:15;;;;;;;0.10;0.10;;;;;;;;;;5067563;28;20427;-67
2022/09/17 01:10:49;;;;;;;0.10;0.10;;;;;;;;;;5067070;28;20901;-67
2022/09/17 01:13:28;;;;;;;0.30;0.30;;;;;;;;;;5060678;28;20434;-67
2022/09/17 01:15:59;;;;;;;0.20;0.20;;;;;;;;;;5062201;28;20428;-67
2022/09/17 01:18:27;;;;;;;0.35;0.25;;;;;;;;;;5062431;28;20422;-67
2022/09/17 01:20:56;;;;;;;0.20;0.20;;;;;;;;;;5071141;28;20450;-67
2022/09/17 01:23:36;;;;;;;0.25;0.25;;;;;;;;;;5059886;28;20477;-67
2022/09/17 01:26:22;;;;;;;0.10;0.10;;;;;;;;;;5063604;28;20442;-67
2022/09/17 01:29:08;;;;;;;0.20;0.20;;;;;;;;;;5061922;28;20497;-67
2022/09/17 01:31:53;;;;;;;0.30;0.30;;;;;;;;;;5063849;28;20431;-67
2022/09/17 01:34:39;;;;;;;0.20;0.20;;;;;;;;;;5063058;28;20435;-67
2022/09/17 01:37:06;;;;;;;0.20;0.20;;;;;;;;;;5070102;28;20997;-67
2022/09/17 01:39:39;;;;;;;0.13;0.13;;;;;;;;;;5065525;28;20429;-67
2022/09/17 01:42:30;;;;;;;0.20;0.20;;;;;;;;;;5065943;28;20427;-67
2022/09/17 01:45:13;;;;;;;0.20;0.20;;;;;;;;;;5058585;28;20435;-67
2022/09/17 01:47:53;;;;;;;0.20;0.20;;;;;;;;;;5065739;28;20838;-67
2022/09/17 01:50:22;;;;;;;0.10;0.10;;;;;;;;;;5067410;28;20541;-67
2022/09/17 01:52:52;;;;;;;0.20;0.20;;;;;;;;;;5061594;28;20429;-67
2022/09/17 01:55:24;;;;;;;0.10;0.10;;;;;;;;;;5060326;28;20970;-67
2022/09/17 01:57:55;;;;;;;0.20;0.20;;;;;;;;;;5056139;28;20477;-67
2022/09/17 02:00:23;;;;;;;0.22;0.22;;;;;;;;;;5068817;28;20432;-67
2022/09/17 02:02:54;;;;;;;0.30;0.30;;;;;;;;;;5065989;28;20506;-67
2022/09/17 02:05:23;;;;;;;0.43;0.35;;;;;;;;;;5057912;28;20432;-67
2022/09/17 02:07:56;;;;;;;0.20;0.20;;;;;;;;;;5062290;28;20489;-67
2022/09/17 02:10:27;;;;;;;1.10;0.30;;;;;;;;;;5061642;28;20502;-68
2022/09/17 02:12:56;;;;;;;0.20;0.20;;;;;;;;;;5067281;28;20504;-67
2022/09/17 02:15:26;;;;;;;0.20;0.20;;;;;;;;;;5064337;28;20432;-67
2022/09/17 02:18:12;;;;;;;0.20;0.20;;;;;;;;;;5060983;28;20424;-67
2022/09/17 02:20:47;;;;;;;0.10;0.10;;;;;;;;;;5052454;28;20431;-68
2022/09/17 02:23:16;;;;;;;0.00;0.00;;;;;;;;;;5060871;28;20912;-67
2022/09/17 02:25:52;;;;;;;0.17;0.17;;;;;;;;;;5060230;28;20429;-67
2022/09/17 02:28:23;;;;;;;0.10;0.10;;;;;;;;;;5059394;28;20431;-68
2022/09/17 02:30:51;;;;;;;0.30;0.30;;;;;;;;;;5061558;28;20427;-67
2022/09/17 02:33:24;;;;;;;0.27;0.27;;;;;;;;;;5060199;28;20457;-67
2022/09/17 02:35:51;;;;;;;0.20;0.20;;;;;;;;;;5057818;28;20443;-67
2022/09/17 02:38:24;;;;;;;0.10;0.10;;;;;;;;;;5066572;28;20431;-67
2022/09/17 02:40:54;;;;;;;0.10;0.10;;;;;;;;;;5065513;28;20426;-67
2022/09/17 02:43:24;;;;;;;0.30;0.30;;;;;;;;;;5062363;28;20556;-67
2022/09/17 02:46:00;;;;;;;0.20;0.20;;;;;;;;;;5063261;28;20435;-67
2022/09/17 02:48:35;;;;;;;0.40;0.30;;;;;;;;;;5068022;28;20439;-67
2022/09/17 02:51:28;;;;;;;0.20;0.20;;;;;;;;;;5061723;28;21175;-67
2022/09/17 02:53:58;;;;;;;0.30;0.30;;;;;;;;;;5035669;28;20994;-67
2022/09/17 02:56:29;;;;;;;0.20;0.20;;;;;;;;;;5062217;28;20989;-67
2022/09/17 02:59:19;;;;;;;0.30;0.30;;;;;;;;;;5054876;28;20763;-67
2022/09/17 03:01:51;;;;;;;0.30;0.30;;;;;;;;;;5066594;28;20419;-67
2022/09/17 03:04:20;;;;;;;0.30;0.30;;;;;;;;;;5059276;28;20844;-67
2022/09/17 03:06:48;;;;;;;0.20;0.20;;;;;;;;;;5062576;28;20921;-67
2022/09/17 03:09:15;;;;;;;0.30;0.30;;;;;;;;;;5066813;28;20443;-67
2022/09/17 03:11:42;;;;;;;0.20;0.20;;;;;;;;;;5066202;28;20432;-67
2022/09/17 03:14:09;;;;;;;0.20;0.20;;;;;;;;;;5060607;28;20431;-68
2022/09/17 03:16:39;;;;;;;0.32;0.32;;;;;;;;;;5061238;28;20461;-68
2022/09/17 03:19:09;;;;;;;0.20;0.20;;;;;;;;;;5065548;28;20424;-68
2022/09/17 03:21:36;;;;;;;0.20;0.20;;;;;;;;;;5064033;28;20516;-68
2022/09/17 03:24:03;;;;;;;0.50;0.30;;;;;;;;;;5054571;28;20792;-68
2022/09/17 03:26:30;;;;;;;0.20;0.20;;;;;;;;;;5067336;28;20900;-68
2022/09/17 03:28:58;;;;;;;0.30;0.30;;;;;;;;;;5065668;28;20913;-68
2022/09/17 03:31:25;;;;;;;0.30;0.30;;;;;;;;;;5052560;28;20438;-68
2022/09/17 03:33:52;;;;;;;0.20;0.20;;;;;;;;;;5063621;28;20425;-67
2022/09/17 03:36:19;;;;;;;0.30;0.30;;;;;;;;;;5065697;28;20443;-68
2022/09/17 03:38:46;;;;;;;0.20;0.20;;;;;;;;;;5060247;28;20889;-68
2022/09/17 03:41:14;;;;;;;0.37;0.37;;;;;;;;;;5066007;28;20510;-68
2022/09/17 03:43:41;;;;;;;0.40;0.40;;;;;;;;;;5063731;28;20443;-68
2022/09/17 03:46:08;;;;;;;0.22;0.22;;;;;;;;;;5069959;28;20510;-68
2022/09/17 03:48:36;;;;;;;0.10;0.10;;;;;;;;;;5069688;28;20514;-68
2022/09/17 03:51:06;;;;;;;0.20;0.20;;;;;;;;;;5069843;28;20497;-68
2022/09/17 03:53:33;;;;;;;2.58;0.77;;;;;;;;;;5052786;28;20438;-68
2022/09/17 03:56:01;;;;;;;0.40;0.40;;;;;;;;;;5055923;28;20438;-68
2022/09/17 03:58:28;;;;;;;0.20;0.20;;;;;;;;;;5066129;28;20432;-68
2022/09/17 04:00:56;;;;;;;0.47;0.47;;;;;;;;;;5074845;28;20422;-68
2022/09/17 04:03:25;;;;;;;0.32;0.32;;;;;;;;;;5071223;28;20428;-68
2022/09/17 04:05:52;;;;;;;2.10;0.30;;;;;;;;;;5049888;28;20942;-68
2022/09/17 04:08:19;;;;;;;0.30;0.30;;;;;;;;;;5063662;28;20481;-68
2022/09/17 04:10:47;;;;;;;0.35;0.35;;;;;;;;;;5049844;28;20437;-68
2022/09/17 04:13:18;;;;;;;0.40;0.30;;;;;;;;;;5059710;28;20921;-68
2022/09/17 04:15:45;;;;;;;0.20;0.20;;;;;;;;;;5064141;28;20756;-67
2022/09/17 04:18:13;;;;;;;0.30;0.20;;;;;;;;;;5076625;28;20429;-67
2022/09/17 04:20:40;;;;;;;0.63;0.63;;;;;;;;;;5075145;28;20458;-67
2022/09/17 04:23:09;;;;;;;0.50;0.43;;;;;;;;;;5068348;28;20435;-67
2022/09/17 04:25:36;;;;;;;0.40;0.40;;;;;;;;;;5059001;28;20436;-67
2022/09/17 04:28:03;;;;;;;2.00;0.20;;;;;;;;;;5064841;28;20438;-67
2022/09/17 04:30:30;;;;;;;1.02;0.57;;;;;;;;;;5058860;28;20439;-68
2022/09/17 04:32:57;;;;;;;0.50;0.50;;;;;;;;;;5058106;28;20489;-67
2022/09/17 04:35:24;;;;;;;0.30;0.30;;;;;;;;;;5049940;28;20431;-68
2022/09/17 04:37:55;;;;;;;1.45;0.32;;;;;;;;;;5059852;28;20433;-67
2022/09/17 04:40:22;;;;;;;0.35;0.35;;;;;;;;;;5056340;28;20431;-68
2022/09/17 04:42:54;;;;;;;0.30;0.30;;;;;;;;;;5059538;28;20463;-68
2022/09/17 04:45:21;;;;;;;0.30;0.30;;;;;;;;;;5058402;28;20431;-71
2022/09/17 04:47:52;;;;;;;0.30;0.30;;;;;;;;;;5062878;28;22546;-69
2022/09/17 04:50:21;;;;;;;2.70;0.50;;;;;;;;;;5068108;28;20448;-68
2022/09/17 04:52:49;;;;;;;0.20;0.20;;;;;;;;;;5063329;28;20438;-68
2022/09/17 04:55:16;;;;;;;0.20;0.20;;;;;;;;;;5066910;28;20844;-68
2022/09/17 04:57:50;;;;;;;0.50;0.50;;;;;;;;;;5054354;28;21002;-68
2022/09/17 05:00:18;;;;;;;1.10;0.50;;;;;;;;;;5058220;28;20439;-68
2022/09/17 05:02:46;;;;;;;0.65;0.25;;;;;;;;;;5055439;28;21117;-68
2022/09/17 05:05:13;;;;;;;1.80;0.28;;;;;;;;;;5055730;28;20436;-68
2022/09/17 05:07:41;;;;;;;0.40;0.40;;;;;;;;;;5059315;28;20432;-68
2022/09/17 05:10:09;;;;;;;0.20;0.20;;;;;;;;;;5053932;28;20435;-68
2022/09/17 05:12:36;;;;;;;0.10;0.10;;;;;;;;;;5055821;28;20511;-68
2022/09/17 05:15:04;;;;;;;0.40;0.40;;;;;;;;;;5053602;28;20448;-68
2022/09/17 05:17:31;;;;;;;0.15;0.15;;;;;;;;;;5068557;28;20514;-68
2022/09/17 05:19:58;;;;;;;0.30;0.30;;;;;;;;;;5064945;28;20431;-68
2022/09/17 05:22:25;;;;;;;0.28;0.28;;;;;;;;;;5060038;28;20419;-68
2022/09/17 05:24:52;;;;;;;0.20;0.20;;;;;;;;;;5055523;28;20424;-68
2022/09/17 05:27:19;;;;;;;0.22;0.22;;;;;;;;;;5060834;28;20433;-69
2022/09/17 05:29:49;;;;;;;0.50;0.22;;;;;;;;;;5063563;28;20435;-69
2022/09/17 05:32:17;;;;;;;0.20;0.20;;;;;;;;;;5061737;28;20496;-70
2022/09/17 05:34:44;;;;;;;0.30;0.30;;;;;;;;;;5064802;28;20488;-69
2022/09/17 05:37:11;;;;;;;1.00;0.40;;;;;;;;;;5062176;28;20435;-69
2022/09/17 05:39:38;;;;;;;0.20;0.20;;;;;;;;;;5063501;28;20828;-69
2022/09/17 05:42:08;;;;;;;0.40;0.40;;;;;;;;;;5070971;28;20892;-69
2022/09/17 05:44:35;;;;;;;0.40;0.40;;;;;;;;;;5057499;28;20432;-69
2022/09/17 05:47:02;;;;;;;0.10;0.10;;;;;;;;;;5069380;28;20431;-68
2022/09/17 05:49:29;;;;;;;0.20;0.20;;;;;;;;;;5064876;28;20452;-69
2022/09/17 05:51:56;;;;;;;0.30;0.30;;;;;;;;;;5067259;28;20427;-68
2022/09/17 05:54:26;;;;;;;0.20;0.20;;;;;;;;;;5064913;28;20441;-69
2022/09/17 05:56:53;;;;;;;0.20;0.20;;;;;;;;;;5068182;28;20501;-69
2022/09/17 05:59:22;;;;;;;0.30;0.30;;;;;;;;;;5064039;28;20905;-70
2022/09/17 06:01:49;;;;;;;0.10;0.10;;;;;;;;;;5066211;28;20428;-68
2022/09/17 06:04:17;;;;;;;0.35;0.35;;;;;;;;;;5053464;28;20436;-69
2022/09/17 06:06:49;;;;;;;0.30;0.30;;;;;;;;;;5065403;28;20431;-69
2022/09/17 06:09:16;;;;;;;0.20;0.20;;;;;;;;;;5068786;28;20462;-69
2022/09/17 06:11:43;;;;;;;0.20;0.20;;;;;;;;;;5067866;28;20427;-68
2022/09/17 06:14:14;;;;;;;0.20;0.20;;;;;;;;;;5057312;28;20431;-68
2022/09/17 06:16:44;;;;;;;1.30;0.20;;;;;;;;;;5062265;28;20424;-68
2022/09/17 06:19:11;;;;;;;1.60;0.35;;;;;;;;;;5052897;28;20435;-68
2022/09/17 06:21:38;;;;;;;0.50;0.50;;;;;;;;;;5061941;28;20971;-68
2022/09/17 06:24:05;;;;;;;0.28;0.28;;;;;;;;;;5064047;28;20435;-68
2022/09/17 06:26:32;;;;;;;0.20;0.20;;;;;;;;;;5056595;28;20431;-68
2022/09/17 06:29:02;;;;;;;0.30;0.30;;;;;;;;;;5069209;28;20441;-68
2022/09/17 06:31:29;;;;;;;0.60;0.40;;;;;;;;;;5067812;28;20427;-69
2022/09/17 06:33:56;;;;;;;0.63;0.40;;;;;;;;;;5060708;28;20463;-69
2022/09/17 06:36:24;;;;;;;0.80;0.45;;;;;;;;;;5058475;28;20424;-67
2022/09/17 06:38:51;;;;;;;0.40;0.40;;;;;;;;;;5065456;28;20422;-68
2022/09/17 06:41:18;;;;;;;0.30;0.30;;;;;;;;;;5067119;28;20435;-69
2022/09/17 06:43:48;;;;;;;0.45;0.30;;;;;;;;;;5064809;28;21173;-70
2022/09/17 06:46:15;;;;;;;0.80;0.20;;;;;;;;;;5063096;28;20801;-69
2022/09/17 06:48:42;;;;;;;0.80;0.40;;;;;;;;;;5064442;28;20439;-70
2022/09/17 06:51:10;;;;;;;0.30;0.30;;;;;;;;;;5064482;28;20465;-69
2022/09/17 06:53:40;;;;;;;0.40;0.40;;;;;;;;;;5067072;28;20431;-70
2022/09/17 06:56:08;;;;;;;0.32;0.32;;;;;;;;;;5062298;28;20520;-68
2022/09/17 06:58:36;;;;;;;0.75;0.50;;;;;;;;;;5056426;28;20436;-69
2022/09/17 07:01:06;;;;;;;0.30;0.20;;;;;;;;;;5058912;28;20512;-68
2022/09/17 07:03:34;;;;;;;1.90;0.40;;;;;;;;;;5066322;28;20423;-68
2022/09/17 07:06:01;;;;;;;0.30;0.20;;;;;;;;;;5066220;28;20429;-67
2022/09/17 07:08:29;;;;;;;1.15;0.57;;;;;;;;;;5057906;28;20436;-70
2022/09/17 07:10:56;;;;;;;0.30;0.30;;;;;;;;;;5066017;28;20719;-70
2022/09/17 07:13:24;;;;;;;0.28;0.28;;;;;;;;;;5057721;28;20444;-68
2022/09/17 07:16:01;;;;;;;0.38;0.38;;;;;;;;;;5061074;28;20498;-70
2022/09/17 07:18:30;;;;;;;0.40;0.28;;;;;;;;;;5058387;28;20521;-70
2022/09/17 07:20:59;;;;;;;0.47;0.47;;;;;;;;;;5062424;28;20477;-69
2022/09/17 07:23:30;;;;;;;0.82;0.70;;;;;;;;;;5076528;28;20491;-69
2022/09/17 07:25:58;;;;;;;0.25;0.22;;;;;;;;;;5075266;28;20427;-68
2022/09/17 07:28:28;;;;;;;2.30;0.30;;;;;;;;;;5071987;28;20505;-69
2022/09/17 07:30:55;;;;;;;0.85;0.40;;;;;;;;;;5069306;28;20494;-71
2022/09/17 07:33:24;;;;;;;0.30;0.30;;;;;;;;;;5061358;28;20427;-69
2022/09/17 07:35:52;;;;;;;0.40;0.40;;;;;;;;;;5063706;28;20498;-68
2022/09/17 07:38:22;;;;;;;0.20;0.20;;;;;;;;;;5056408;28;20916;-68
2022/09/17 07:40:59;;;;;;;0.50;0.50;;;;;;;;;;5064646;28;20427;-68
2022/09/17 07:43:27;;;;;;;0.40;0.40;;;;;;;;;;5060158;28;20864;-68
2022/09/17 07:45:54;;;;;;;0.50;0.40;;;;;;;;;;5049453;28;20428;-68
2022/09/17 07:48:21;;;;;;;0.77;0.50;;;;;;;;;;5065931;28;20442;-69
2022/09/17 07:50:48;;;;;;;0.40;0.40;;;;;;;;;;5060230;28;20441;-68
2022/09/17 07:53:15;;;;;;;0.20;0.20;;;;;;;;;;5061777;28;20458;-69
2022/09/17 07:55:43;;;;;;;1.57;0.50;;;;;;;;;;5057264;28;20493;-69
2022/09/17 07:58:10;;;;;;;0.57;0.32;;;;;;;;;;5056781;28;20437;-69
2022/09/17 08:00:37;;;;;;;0.50;0.40;;;;;;;;;;5062393;28;20473;-69
2022/09/17 08:03:04;;;;;;;0.73;0.50;;;;;;;;;;5057932;28;20435;-70
2022/09/17 08:05:31;;;;;;;2.38;0.40;;;;;;;;;;5062040;28;20493;-69
2022/09/17 08:07:59;;;;;;;0.40;0.40;;;;;;;;;;5058911;28;21371;-74
2022/09/17 08:10:26;;;;;;;0.60;0.30;;;;;;;;;;5060793;28;20431;-69
2022/09/17 08:12:57;;;;;;;0.40;0.40;;;;;;;;;;5070794;28;20468;-70
2022/09/17 08:15:24;;;;;;;0.20;0.20;;;;;;;;;;5066848;28;20461;-70
2022/09/17 08:17:51;;;;;;;1.10;0.30;;;;;;;;;;5067304;28;21132;-70
2022/09/17 08:20:19;;;;;;;0.30;0.30;;;;;;;;;;5059070;28;21139;-69
2022/09/17 08:22:46;;;;;;;0.40;0.40;;;;;;;;;;5057292;28;20427;-69
2022/09/17 08:25:16;;;;;;;0.40;0.40;;;;;;;;;;5065013;28;20437;-69
2022/09/17 08:27:43;;;;;;;0.37;0.37;;;;;;;;;;5056229;28;20432;-69
2022/09/17 08:30:11;;;;;;;0.28;0.28;;;;;;;;;;5068693;28;20962;-69
2022/09/17 08:32:38;;;;;;;0.22;0.22;;;;;;;;;;5071840;28;20926;-69
2022/09/17 08:35:06;;;;;;;0.30;0.30;;;;;;;;;;5080632;28;20427;-69
2022/09/17 08:37:34;;;;;;;1.00;0.35;;;;;;;;;;5070264;28;20533;-69
2022/09/17 08:40:01;;;;;;;0.30;0.30;;;;;;;;;;5061137;28;20931;-69
2022/09/17 08:42:41;;;;;;;0.30;0.30;;;;;;;;;;5066694;28;20529;-69
2022/09/17 08:45:13;;;;;;;0.40;0.25;;;;;;;;;;5067088;28;20439;-69
2022/09/17 08:47:42;;;;;;;0.40;0.40;;;;;;;;;;5078385;28;20887;-69
2022/09/17 08:50:19;;;;;;;0.40;0.40;;;;;;;;;;5068133;28;20431;-70
2022/09/17 08:53:05;;;;;;;0.10;0.10;;;;;;;;;;5068523;28;20427;-69
2022/09/17 08:55:51;;;;;;;0.50;0.50;;;;;;;;;;5063355;28;20434;-69
2022/09/17 08:58:40;;;;;;;0.40;0.40;;;;;;;;;;5068437;28;20901;-69
2022/09/17 09:01:16;;;;;;;0.20;0.20;;;;;;;;;;5057525;28;20429;-69
2022/09/17 09:03:58;;;;;;;0.30;0.30;;;;;;;;;;5062678;28;20479;-69
2022/09/17 09:06:29;;;;;;;1.77;0.50;;;;;;;;;;5066309;28;20797;-70
2022/09/17 09:09:02;;;;;;;0.30;0.30;;;;;;;;;;5062656;28;20446;-70
2022/09/17 09:11:30;;;;;;;0.88;0.88;;;;;;;;;;5062905;28;20432;-69
2022/09/17 09:13:59;;;;;;;0.70;0.70;;;;;;;;;;5059558;28;20431;-69
2022/09/17 09:16:29;;;;;;;0.30;0.30;;;;;;;;;;5067273;28;20427;-69
2022/09/17 09:19:04;;;;;;;0.25;0.25;;;;;;;;;;5065094;28;20974;-69
2022/09/17 09:21:42;;;;;;;0.30;0.30;;;;;;;;;;5062211;28;20431;-69
2022/09/17 09:24:26;;;;;;;0.90;0.35;;;;;;;;;;5067104;28;20443;-69
2022/09/17 09:27:12;;;;;;;0.30;0.20;;;;;;;;;;5063545;28;20476;-69
2022/09/17 09:29:47;;;;;;;0.20;0.20;;;;;;;;;;5054506;28;20516;-69
2022/09/17 09:32:33;;;;;;;0.82;0.38;;;;;;;;;;5060479;28;20437;-69
2022/09/17 09:35:02;;;;;;;0.30;0.30;;;;;;;;;;5063988;28;20428;-69
2022/09/17 09:37:32;;;;;;;0.20;0.20;;;;;;;;;;5067857;28;20438;-69
2022/09/17 09:40:20;;;;;;;0.20;0.20;;;;;;;;;;5068651;28;20886;-69
2022/09/17 09:42:48;;;;;;;0.30;0.30;;;;;;;;;;5064486;28;20420;-69
2022/09/17 09:45:17;;;;;;;0.30;0.30;;;;;;;;;;5063959;28;20813;-69
2022/09/17 09:48:06;;;;;;;0.40;0.40;;;;;;;;;;5058262;28;20525;-69
2022/09/17 09:50:33;;;;;;;0.30;0.30;;;;;;;;;;5063609;28;20813;-70
2022/09/17 09:53:39;;;;;;;0.10;0.10;;;;;;;;;;5052137;28;20481;-68
2022/09/17 09:56:06;;;;;;;0.30;0.30;;;;;;;;;;5063940;28;20494;-68
2022/09/17 09:58:34;;;;;;;0.40;0.30;;;;;;;;;;5054768;28;20431;-66
2022/09/17 10:01:01;;;;;;;0.20;0.20;;;;;;;;;;5055485;28;20490;-67
2022/09/17 10:03:31;;;;;;;0.80;0.35;;;;;;;;;;5063460;28;20424;-67
2022/09/17 10:06:01;;;;;;;0.20;0.20;;;;;;;;;;5059267;28;20451;-67
2022/09/17 10:08:34;;;;;;;0.30;0.30;;;;;;;;;;5069435;28;20518;-66
2022/09/17 10:11:10;;;;;;;0.30;0.30;;;;;;;;;;5057726;28;20425;-67
2022/09/17 10:13:37;;;;;;;0.13;0.13;;;;;;;;;;5058206;28;20996;-67
2022/09/17 10:16:24;;;;;;;0.25;0.25;;;;;;;;;;5063842;28;20435;-67
2022/09/17 10:19:03;;;;;;;0.20;0.20;;;;;;;;;;5062188;28;20465;-67
2022/09/17 10:21:35;;;;;;;0.30;0.30;;;;;;;;;;5063901;28;20419;-67
2022/09/17 10:24:03;;;;;;;0.40;0.40;;;;;;;;;;5058161;28;20438;-68
2022/09/17 10:26:31;;;;;;;0.30;0.30;;;;;;;;;;5066058;28;20480;-67
2022/09/17 10:29:00;;;;;;;0.50;0.28;;;;;;;;;;5061174;28;20444;-67
2022/09/17 10:31:27;;;;;;;0.37;0.37;;;;;;;;;;5066187;28;20520;-67
2022/09/17 10:34:00;;;;;;;0.20;0.20;;;;;;;;;;5060960;28;20442;-68
2022/09/17 10:36:38;;;;;;;0.40;0.40;;;;;;;;;;5066916;28;20431;-68
2022/09/17 10:39:24;;;;;;;0.50;0.50;;;;;;;;;;5063781;28;20435;-69
2022/09/17 10:41:55;;;;;;;0.10;0.10;;;;;;;;;;5057328;28;20443;-69
2022/09/17 10:44:23;;;;;;;0.40;0.40;;;;;;;;;;5053603;28;20485;-69
2022/09/17 10:46:51;;;;;;;0.43;0.43;;;;;;;;;;5069030;28;20909;-69
2022/09/17 10:49:27;;;;;;;0.20;0.20;;;;;;;;;;5069719;28;20503;-69
2022/09/17 10:52:03;;;;;;;0.10;0.10;;;;;;;;;;5077289;28;20427;-70
2022/09/17 10:54:40;;;;;;;0.20;0.20;;;;;;;;;;5072631;28;20854;-69
2022/09/17 10:57:11;;;;;;;0.30;0.30;;;;;;;;;;5068876;28;20435;-68
2022/09/17 10:59:57;;;;;;;0.30;0.30;;;;;;;;;;5078397;28;20489;-69
2022/09/17 11:02:30;;;;;;;0.38;0.38;;;;;;;;;;5061082;28;20448;-70
2022/09/17 11:05:07;;;;;;;0.70;0.32;;;;;;;;;;5075201;28;20435;-69
2022/09/17 11:07:39;;;;;;;0.22;0.20;;;;;;;;;;5065542;28;21000;-70
2022/09/17 11:10:07;;;;;;;0.90;0.38;;;;;;;;;;5071807;28;20435;-70
2022/09/17 11:13:03;;;;;;;0.38;0.38;;;;;;;;;;5071024;28;21000;-71
2022/09/17 11:15:37;;;;;;;0.20;0.20;;;;;;;;;;5047428;28;20420;-70
2022/09/17 11:18:13;;;;;;;0.20;0.20;;;;;;;;;;5080816;28;20483;-70
2022/09/17 11:20:53;;;;;;;0.10;0.10;;;;;;;;;;5080967;28;20422;-71
2022/09/17 11:23:42;;;;;;;1.30;0.27;;;;;;;;;;5067703;28;20489;-69
2022/09/17 11:26:12;;;;;;;0.90;0.30;;;;;;;;;;5063017;28;20461;-71
2022/09/17 11:28:50;;;;;;;0.25;0.25;;;;;;;;;;5067770;28;20491;-71
2022/09/17 11:31:20;;;;;;;0.40;0.28;;;;;;;;;;5075575;28;20431;-72
2022/09/17 11:34:02;;;;;;;0.20;0.20;;;;;;;;;;5076669;28;20429;-70
2022/09/17 11:36:37;;;;;;;0.37;0.37;;;;;;;;;;5071987;28;20487;-71
2022/09/17 11:39:12;;;;;;;0.30;0.20;;;;;;;;;;5083473;28;20429;-72
2022/09/17 11:41:42;;;;;;;0.22;0.22;;;;;;;;;;5077980;28;20483;-71
2022/09/17 11:44:27;;;;;;;0.20;0.20;;;;;;;;;;5073720;28;20895;-71
2022/09/17 11:47:02;;;;;;;0.30;0.30;;;;;;;;;;5083530;28;20428;-71
2022/09/17 11:49:38;;;;;;;0.98;0.40;;;;;;;;;;5080699;28;20433;-70
2022/09/17 11:52:10;;;;;;;0.30;0.30;;;;;;;;;;5083525;28;20512;-71
2022/09/17 11:54:43;;;;;;;0.20;0.20;;;;;;;;;;5082699;28;20429;-71
2022/09/17 11:57:22;;;;;;;0.40;0.40;;;;;;;;;;5086553;28;20844;-71
2022/09/17 11:59:52;;;;;;;0.50;0.40;;;;;;;;;;5084432;28;20431;-71
2022/09/17 12:02:37;;;;;;;0.22;0.22;;;;;;;;;;5077989;28;20492;-71
2022/09/17 12:05:06;;;;;;;0.22;0.22;;;;;;;;;;5080141;28;20431;-69
2022/09/17 12:07:54;;;;;;;0.40;0.30;;;;;;;;;;5076492;28;20427;-70
2022/09/17 12:10:36;;;;;;;0.65;0.35;;;;;;;;;;5072683;28;20442;-69
2022/09/17 12:13:11;;;;;;;0.35;0.20;;;;;;;;;;5081009;28;20941;-70
2022/09/17 12:15:44;;;;;;;0.40;0.40;;;;;;;;;;5083963;28;20933;-70
2022/09/17 12:18:16;;;;;;;0.28;0.28;;;;;;;;;;5086449;28;20794;-70
2022/09/17 12:21:03;;;;;;;0.20;0.20;;;;;;;;;;5068035;28;20532;-69
2022/09/17 12:23:45;;;;;;;0.70;0.20;;;;;;;;;;5069417;28;20809;-70
2022/09/17 12:26:18;;;;;;;0.25;0.25;;;;;;;;;;5072869;28;20512;-68
2022/09/17 12:28:57;;;;;;;0.20;0.20;;;;;;;;;;5084571;28;20433;-68
2022/09/17 12:31:42;;;;;;;0.60;0.40;;;;;;;;;;5074104;28;20844;-70
2022/09/17 12:34:21;;;;;;;0.30;0.30;;;;;;;;;;5073097;28;20429;-70
2022/09/17 12:37:02;;;;;;;0.20;0.20;;;;;;;;;;5068074;28;20454;-70
2022/09/17 12:39:29;;;;;;;0.40;0.40;;;;;;;;;;5073279;28;20537;-70
2022/09/17 12:42:15;;;;;;;0.20;0.20;;;;;;;;;;5068819;28;20836;-70
2022/09/17 12:44:42;;;;;;;0.30;0.30;;;;;;;;;;5062956;28;20429;-70
2022/09/17 12:47:28;;;;;;;0.20;0.20;;;;;;;;;;5068210;28;20427;-70
2022/09/17 12:50:13;;;;;;;0.50;0.20;;;;;;;;;;5084208;28;20450;-70
2022/09/17 12:52:51;;;;;;;0.20;0.20;;;;;;;;;;5065418;28;20468;-69
2022/09/17 12:55:27;;;;;;;0.20;0.20;;;;;;;;;;5064009;28;20438;-71
2022/09/17 12:58:06;;;;;;;0.50;0.30;;;;;;;;;;5065171;28;20501;-70
2022/09/17 13:00:40;;;;;;;0.70;0.20;;;;;;;;;;5075721;28;20464;-69
2022/09/17 13:03:14;;;;;;;0.20;0.20;;;;;;;;;;5080936;28;20453;-70
2022/09/17 13:05:49;;;;;;;0.20;0.20;;;;;;;;;;5080934;28;20934;-69
2022/09/17 13:08:34;;;;;;;0.60;0.60;;;;;;;;;;5081646;28;20421;-69
2022/09/17 13:11:23;;;;;;;0.30;0.22;;;;;;;;;;5076148;28;20426;-70
2022/09/17 13:13:55;;;;;;;0.20;0.20;;;;;;;;;;5066654;28;20452;-69
2022/09/17 13:16:26;;;;;;;0.20;0.20;;;;;;;;;;5065327;28;20424;-70
2022/09/17 13:19:15;;;;;;;0.70;0.20;;;;;;;;;;5064698;28;20478;-69
2022/09/17 13:21:49;;;;;;;0.20;0.20;;;;;;;;;;5069764;28;20435;-69
2022/09/17 13:24:17;;;;;;;0.43;0.30;;;;;;;;;;5083724;28;20478;-69
2022/09/17 13:26:48;;;;;;;0.20;0.20;;;;;;;;;;5084596;28;20431;-71
2022/09/17 13:29:48;;;;;;;0.30;0.30;;;;;;;;;;5069240;28;20441;-70
2022/09/17 13:32:33;;;;;;;0.20;0.20;;;;;;;;;;5060401;28;20429;-70
2022/09/17 13:35:10;;;;;;;0.20;0.20;;;;;;;;;;5059437;28;20436;-66
2022/09/17 13:37:44;;;;;;;0.40;0.40;;;13.70;99.90;;;;;;5066126;28;20452;-66
2022/09/17 13:40:26;;;;;;;0.80;0.38;;;12.30;99.90;;;;;;5088186;28;20437;-66
2022/09/17 13:42:55;;;;;;;0.20;0.20;;;;;;;;;;5066911;28;21277;-70
2022/09/17 13:45:23;;;;;;;0.90;0.50;;;;;;;;;;5080565;28;20430;-70
2022/09/17 13:47:52;;;;;;;0.40;0.40;;;;;;;;;;5076075;28;21112;-70
2022/09/17 13:50:39;;;;;;;0.30;0.30;;;;;;;;;;5073580;28;20505;-69
2022/09/17 13:53:14;;;;;;;0.20;0.20;;;;;;;;;;5078521;28;20462;-69
2022/09/17 13:55:42;;;;;;;0.20;0.20;;;;;;;;;;5066438;28;20427;-70
2022/09/17 13:58:12;;;;;;;0.17;0.17;;;;;;;;;;5074309;28;20439;-69
2022/09/17 14:01:08;;;;;;;0.30;0.30;;;11.80;99.90;;;;;;5070833;28;20923;-71
2022/09/17 14:03:45;;;;;;;0.37;0.23;;;;;;;;;;5068157;28;20521;-71
2022/09/17 14:06:16;;;;;;;0.20;0.20;;;18.30;99.90;;;;;;5079652;28;20434;-70
2022/09/17 14:08:43;;;;;;;0.20;0.20;;;20.60;99.90;;;;;;5069982;28;20480;-71
2022/09/17 14:11:22;;;;;;;0.13;0.13;;;21.20;99.90;;;;;;5072709;28;20463;-72
2022/09/17 14:13:56;;;;;;;0.20;0.20;;;21.50;99.90;;;;;;5073007;28;20860;-70
2022/09/17 14:16:36;;;;;;;0.20;0.20;;;21.70;99.90;;;;;;5063134;28;20456;-71
2022/09/17 14:19:35;;;;;;;0.20;0.20;;;21.90;99.90;;;;;;5074754;28;20780;-71
2022/09/17 14:22:13;;;;;;;0.30;0.30;;;21.60;99.90;;;;;;5069388;28;21411;-70
2022/09/17 14:24:43;;;;;;;0.10;0.10;;;21.60;99.90;;;;;;5061395;28;20528;-70
2022/09/17 14:27:21;;;;;;;0.20;0.20;;;21.10;99.90;;;;;;5059518;28;20427;-71
2022/09/17 14:30:11;;;;;;;0.30;0.30;;;;;;;;;;5075446;28;20511;-71
2022/09/17 14:32:44;;;;;;;0.20;0.20;;;;;;;;;;5060864;28;20462;-71
2022/09/17 14:35:20;;;;;;;1.10;0.25;;;;;;;;;;5066319;28;20429;-70
2022/09/17 14:38:08;;;;;;;0.30;0.30;;;20.30;99.90;;;;;;5075757;28;20433;-71
2022/09/17 14:41:06;;;;;;;0.20;0.20;;;21.00;99.90;;;;;;5063275;28;20503;-70
2022/09/17 14:44:00;;;;;;;0.20;0.20;;;22.10;99.90;;;;;;5051358;28;20479;-70
2022/09/17 14:46:48;;;;;;;0.13;0.13;;;22.70;99.90;;;;;;5059642;28;20431;-71
2022/09/17 14:49:26;;;;;;;0.20;0.20;;;23.20;99.90;;;;;;5068441;28;20427;-70
2022/09/17 14:51:54;;;;;;;0.30;0.30;;;23.30;99.90;;;;;;5065680;28;20959;-70
2022/09/17 14:54:25;;;;;;;0.10;0.10;;;23.10;99.90;;;;;;5082134;28;20435;-68
2022/09/17 14:56:54;;;;;;;0.20;0.20;;;23.00;99.90;;;;;;5077244;28;20522;-71
2022/09/17 14:59:40;;;;;;;0.40;0.20;;;22.50;99.90;;;;;;5076190;28;20428;-71
2022/09/17 15:02:54;;;;;;;0.20;0.20;;;20.70;99.90;;;;;;5069273;28;20427;-70
2022/09/17 15:05:26;;;;;;;0.20;0.20;;;19.70;99.90;;;;;;5025632;28;20435;-70